Time;durP1;ratioP1;P1;durP2;ratioP2;P2;SDS_P1;SDS_P2;PMS_P1;PMS_P2;Temp;Humidity;BMP_temperature;BMP_pressure;BME280_temperature;BME280_humidity;BME280_pressure;Samples;Min_cycle;Max_cycle;Signal;HPM_P1;HPM_P2
2022/12/20 00:00:17;;;;;;;13.13;11.73;;;;;;;;;;5035430;28;20216;-77
2022/12/20 00:02:47;;;;;;;13.40;11.77;;;;;;;;;;5016579;28;20225;-77
2022/12/20 00:05:19;;;;;;;13.60;12.20;;;;;;;;;;5026447;28;20246;-77
2022/12/20 00:07:44;;;;;;;12.83;11.50;;;;;;;;;;5041921;28;20235;-76
2022/12/20 00:10:12;;;;;;;13.47;12.17;;;;;;;;;;5019953;28;20220;-77
2022/12/20 00:12:40;;;;;;;13.73;12.17;;;;;;;;;;5036121;28;20314;-76
2022/12/20 00:15:08;;;;;;;13.70;12.07;;;;;;;;;;5029576;28;20261;-76
2022/12/20 00:17:34;;;;;;;12.40;11.20;;;;;;;;;;5006830;28;20632;-77
2022/12/20 00:19:59;;;;;;;13.73;12.33;;;;;;;;;;5040041;28;20227;-76
2022/12/20 00:22:27;;;;;;;14.90;11.63;;;;;;;;;;5031668;28;20261;-77
2022/12/20 00:24:55;;;;;;;13.63;12.33;;;;;;;;;;5030859;28;20256;-76
2022/12/20 00:27:21;;;;;;;12.47;11.27;;;;;;;;;;4999131;28;20259;-76
2022/12/20 00:29:49;;;;;;;12.97;11.60;;;;;;;;;;5014386;28;20280;-76
2022/12/20 00:32:14;;;;;;;11.93;10.37;;;;;;;;;;5012882;28;20216;-76
2022/12/20 00:34:42;;;;;;;12.83;11.47;;;;;;;;;;5046189;28;20216;-76
2022/12/20 00:37:10;;;;;;;13.70;12.00;;;;;;;;;;5026477;28;20280;-77
2022/12/20 00:39:38;;;;;;;12.63;11.27;;;;;;;;;;5014352;28;20645;-76
2022/12/20 00:42:06;;;;;;;14.20;11.17;;;;;;;;;;5021077;28;20532;-76
2022/12/20 00:44:34;;;;;;;13.53;11.80;;;;;;;;;;5030122;28;20307;-77
2022/12/20 00:47:05;;;;;;;13.67;11.37;;;;;;;;;;5028722;28;20327;-76
2022/12/20 00:49:35;;;;;;;11.40;10.30;;;;;;;;;;5030425;28;20227;-76
2022/12/20 00:52:03;;;;;;;12.17;11.03;;;;;;;;;;5015193;28;20220;-77
2022/12/20 00:54:30;;;;;;;11.23;10.23;;;;;;;;;;5009881;28;20224;-76
2022/12/20 00:56:58;;;;;;;11.97;10.87;;;;;;;;;;5024917;28;20717;-76
2022/12/20 00:59:24;;;;;;;11.53;10.33;;;;;;;;;;5006348;28;20224;-76
2022/12/20 01:01:50;;;;;;;11.57;10.53;;;;;;;;;;5016913;28;20226;-76
2022/12/20 01:04:18;;;;;;;12.23;10.10;;;;;;;;;;5021378;28;20219;-76
2022/12/20 01:06:43;;;;;;;12.10;10.73;;;;;;;;;;4997584;28;20266;-76
2022/12/20 01:09:11;;;;;;;13.80;10.23;;;;;;;;;;5007516;28;20259;-76
2022/12/20 01:11:39;;;;;;;10.90;9.80;;;;;;;;;;5006275;28;20244;-76
2022/12/20 01:14:11;;;;;;;12.47;10.57;;;;;;;;;;5030398;28;20224;-76
2022/12/20 01:16:40;;;;;;;11.77;10.63;;;;;;;;;;5005236;28;20236;-76
2022/12/20 01:19:06;;;;;;;11.33;10.13;;;;;;;;;;5031307;28;20220;-76
2022/12/20 01:21:34;;;;;;;12.00;10.77;;;;;;;;;;5022544;28;20607;-75
2022/12/20 01:24:04;;;;;;;11.33;9.70;;;;;;;;;;5007908;28;20212;-76
2022/12/20 01:26:32;;;;;;;10.53;9.43;;;;;;;;;;5019864;28;20268;-76
2022/12/20 01:29:01;;;;;;;11.33;10.17;;;;;;;;;;5030191;28;20224;-75
2022/12/20 01:31:27;;;;;;;11.20;9.50;;;;;;;;;;4997766;28;20603;-75
2022/12/20 01:33:55;;;;;;;11.97;9.77;;;;;;;;;;5011653;28;20589;-78
2022/12/20 01:36:25;;;;;;;10.33;9.37;;;;;;;;;;5015171;28;20582;-75
2022/12/20 01:39:04;;;;;;;10.80;9.70;;;;;;;;;;5013674;28;20285;-75
2022/12/20 01:41:37;;;;;;;11.00;9.60;;;;;;;;;;5021603;28;20226;-75
2022/12/20 01:44:28;;;;;;;11.33;9.73;;;;;;;;;;5010800;28;20219;-75
2022/12/20 01:46:56;;;;;;;9.90;8.90;;;;;;;;;;5012001;28;20228;-76
2022/12/20 01:49:45;;;;;;;10.40;8.93;;;;;;;;;;5027527;28;20286;-75
2022/12/20 01:52:15;;;;;;;10.13;9.13;;;;;;;;;;5015817;28;20262;-76
2022/12/20 01:55:15;;;;;;;10.67;9.60;;;;;;;;;;5013325;28;20216;-76
2022/12/20 01:57:50;;;;;;;10.47;9.37;;;;;;;;;;5043282;28;20271;-76
2022/12/20 02:00:19;;;;;;;11.00;9.90;;;;;;;;;;5029258;28;20215;-76
2022/12/20 02:02:51;;;;;;;11.27;9.13;;;;;;;;;;5009094;28;20270;-75
2022/12/20 02:05:18;;;;;;;10.40;9.30;;;;;;;;;;5020586;28;20227;-76
2022/12/20 02:07:47;;;;;;;12.40;10.47;;;;;;;;;;5004477;28;20212;-76
2022/12/20 02:10:14;;;;;;;10.87;9.70;;;;;;;;;;5003019;28;20223;-76
2022/12/20 02:12:43;;;;;;;9.97;9.07;;;;;;;;;;5021902;28;20220;-76
2022/12/20 02:15:12;;;;;;;10.73;9.63;;;;;;;;;;5008693;28;20302;-76
2022/12/20 02:17:59;;;;;;;10.40;9.33;;;;;;;;;;5044818;28;20273;-76
2022/12/20 02:20:52;;;;;;;9.80;8.90;;;;;;;;;;5044509;28;20286;-76
2022/12/20 02:23:38;;;;;;;10.00;9.10;;;;;;;;;;5007560;28;20358;-77
2022/12/20 02:26:25;;;;;;;9.90;8.93;;;;;;;;;;5044158;28;20249;-77
2022/12/20 02:29:00;;;;;;;10.70;9.60;;;;;;;;;;5038146;28;20228;-76
2022/12/20 02:31:34;;;;;;;9.53;8.63;;;;;;;;;;5030862;28;20219;-76
2022/12/20 02:34:01;;;;;;;9.37;8.57;;;;;;;;;;5013055;28;20219;-77
2022/12/20 02:36:29;;;;;;;10.30;9.10;;;;;;;;;;5007662;28;20227;-76
2022/12/20 02:38:57;;;;;;;9.43;8.63;;;;;;;;;;5008484;28;20215;-76
2022/12/20 02:41:47;;;;;;;9.63;8.63;;;;;;;;;;5009204;28;20232;-76
2022/12/20 02:47:01;;;;;;;9.67;8.67;;;;;;;;;;5016606;28;20310;-77
2022/12/20 02:49:31;;;;;;;10.33;9.33;;;;;;;;;;4985756;28;20212;-77
2022/12/20 02:51:59;;;;;;;13.17;9.50;;;;;;;;;;5013859;28;20227;-77
2022/12/20 02:54:28;;;;;;;10.20;9.20;;;;;;;;;;5013974;28;20219;-77
2022/12/20 02:56:56;;;;;;;10.60;9.60;;;;;;;;;;5012516;28;20645;-76
2022/12/20 02:59:27;;;;;;;11.13;10.03;;;;;;;;;;5011514;28;20226;-76
2022/12/20 03:01:53;;;;;;;10.73;9.60;;;;;;;;;;5020974;28;20244;-76
2022/12/20 03:04:23;;;;;;;10.47;9.47;;;;;;;;;;5022933;28;20587;-76
2022/12/20 03:06:57;;;;;;;11.27;10.17;;;;;;;;;;4991925;28;20223;-76
2022/12/20 03:09:25;;;;;;;11.00;10.00;;;;;;;;;;5048332;28;20227;-77
2022/12/20 03:11:51;;;;;;;11.97;10.77;;;;;;;;;;5005497;28;20709;-75
2022/12/20 03:14:20;;;;;;;13.10;10.73;;;;;;;;;;5011218;28;20247;-76
2022/12/20 03:16:48;;;;;;;12.67;10.47;;;;;;;;;;5024221;28;20220;-76
2022/12/20 03:19:13;;;;;;;12.17;11.07;;;;;;;;;;5014900;28;20584;-77
2022/12/20 03:21:42;;;;;;;12.37;11.10;;;;;;;;;;5007726;28;20434;-77
2022/12/20 03:24:12;;;;;;;12.57;10.57;;;;;;;;;;5004780;28;20693;-77
2022/12/20 03:26:40;;;;;;;16.87;11.63;;;;;;;;;;5031877;28;20224;-77
2022/12/20 03:29:06;;;;;;;12.37;11.10;;;;;;;;;;5032248;28;20219;-76
2022/12/20 03:31:34;;;;;;;12.63;10.90;;;;;;;;;;5009697;28;20349;-76
2022/12/20 03:34:03;;;;;;;12.10;10.27;;;;;;;;;;5030678;28;20224;-76
2022/12/20 03:36:30;;;;;;;12.60;11.30;;;;;;;;;;5007055;28;20928;-76
2022/12/20 03:39:00;;;;;;;12.50;11.13;;;;;;;;;;5033751;28;20295;-77
2022/12/20 03:41:33;;;;;;;13.47;11.37;;;;;;;;;;5012639;28;20337;-77
2022/12/20 03:44:03;;;;;;;11.43;10.43;;;;;;;;;;5032899;28;20219;-76
2022/12/20 03:46:33;;;;;;;11.80;10.67;;;;;;;;;;5045436;28;20220;-76
2022/12/20 03:49:01;;;;;;;12.67;11.37;;;;;;;;;;5030993;28;20227;-77
2022/12/20 03:51:28;;;;;;;12.43;11.23;;;;;;;;;;5009196;28;20212;-76
2022/12/20 03:53:56;;;;;;;13.10;11.07;;;;;;;;;;5025336;28;20762;-77
2022/12/20 03:56:32;;;;;;;12.07;10.97;;;;;;;;;;5046230;28;20256;-76
2022/12/20 03:59:01;;;;;;;14.80;10.97;;;;;;;;;;5030683;28;20295;-76
2022/12/20 04:01:27;;;;;;;14.10;11.90;;;;;;;;;;5012386;28;20220;-76
2022/12/20 04:03:54;;;;;;;12.27;11.13;;;;;;;;;;5031852;28;20216;-76
2022/12/20 04:06:20;;;;;;;12.47;11.27;;;;;;;;;;5015995;28;20209;-77
2022/12/20 04:08:45;;;;;;;12.87;11.17;;;;;;;;;;5022757;28;20223;-79
2022/12/20 04:11:17;;;;;;;11.57;10.50;;;;;;;;;;5014816;28;20211;-76
2022/12/20 04:14:05;;;;;;;12.83;11.43;;;;;;;;;;5029684;28;20310;-77
2022/12/20 04:16:36;;;;;;;12.07;10.97;;;;;;;;;;5012577;28;20528;-77
2022/12/20 04:19:03;;;;;;;12.30;11.10;;;;;;;;;;5033126;28;20790;-77
2022/12/20 04:21:37;;;;;;;12.67;11.47;;;;;;;;;;5000874;28;20246;-76
2022/12/20 04:24:06;;;;;;;14.07;12.63;;;;;;;;;;5031307;28;20602;-78
2022/12/20 04:26:41;;;;;;;13.17;11.70;;;;;;;;;;5048257;28;20287;-75
2022/12/20 04:29:07;;;;;;;13.07;11.73;;;;;;;;;;5031365;28;20274;-75
2022/12/20 04:31:35;;;;;;;13.33;12.03;;;;;;;;;;5006001;28;20224;-77
2022/12/20 04:34:01;;;;;;;12.27;11.07;;;;;;;;;;5013256;28;20216;-76
2022/12/20 04:36:30;;;;;;;13.00;11.70;;;;;;;;;;5015194;28;20235;-77
2022/12/20 04:41:32;;;;;;;11.73;10.73;;;;;;;;;;5019535;28;20242;-77
2022/12/20 04:44:08;;;;;;;12.23;11.00;;;;;;;;;;5026735;28;20698;-77
2022/12/20 04:46:38;;;;;;;12.03;10.93;;;;;;;;;;5011075;28;20227;-77
2022/12/20 04:51:42;;;;;;;12.03;10.83;;;;;;;;;;5021771;28;20246;-77
2022/12/20 04:54:09;;;;;;;11.53;10.37;;;;;;;;;;4994625;28;20225;-78
2022/12/20 04:56:44;;;;;;;11.27;10.23;;;;;;;;;;5026061;28;20319;-78
2022/12/20 04:59:17;;;;;;;11.47;10.37;;;;;;;;;;5023319;28;20212;-77
2022/12/20 05:01:45;;;;;;;13.23;11.90;;;;;;;;;;5012111;28;20597;-77
2022/12/20 05:04:16;;;;;;;17.67;11.73;;;;;;;;;;5010780;28;20757;-77
2022/12/20 05:06:44;;;;;;;13.27;12.00;;;;;;;;;;5006542;28;20220;-77
2022/12/20 05:09:10;;;;;;;11.93;10.80;;;;;;;;;;4996091;28;20254;-77
2022/12/20 05:11:36;;;;;;;12.03;10.97;;;;;;;;;;5009877;28;20263;-77
2022/12/20 05:14:05;;;;;;;18.13;12.63;;;;;;;;;;5005107;28;20235;-77
2022/12/20 05:16:31;;;;;;;14.43;12.57;;;;;;;;;;4994845;28;20236;-77
2022/12/20 05:19:00;;;;;;;13.37;11.97;;;;;;;;;;4994939;28;20259;-76
2022/12/20 05:27:15;;;;;;;12.20;10.90;;;;;;;;;;5012697;28;20227;-76
2022/12/20 05:29:43;;;;;;;11.50;10.43;;;;;;;;;;5026122;28;20221;-76
2022/12/20 05:32:12;;;;;;;13.00;11.63;;;;;;;;;;4994536;28;20243;-76
2022/12/20 05:34:41;;;;;;;12.53;11.23;;;;;;;;;;5009828;28;20304;-76
2022/12/20 05:37:06;;;;;;;13.07;11.73;;;;;;;;;;4993955;28;20229;-76
2022/12/20 05:39:34;;;;;;;13.47;11.47;;;;;;;;;;5023633;28;20224;-77
2022/12/20 05:42:05;;;;;;;14.27;12.40;;;;;;;;;;5025265;28;20216;-76
2022/12/20 05:44:30;;;;;;;13.73;11.53;;;;;;;;;;5025599;28;20648;-76
2022/12/20 05:46:58;;;;;;;13.63;12.33;;;;;;;;;;5027083;28;20220;-76
2022/12/20 05:49:33;;;;;;;13.43;12.13;;;;;;;;;;5008970;28;20720;-77
2022/12/20 05:52:01;;;;;;;13.67;12.07;;;;;;;;;;4994176;28;20715;-76
2022/12/20 05:54:29;;;;;;;14.07;12.07;;;;;;;;;;5016140;28;20226;-75
2022/12/20 05:57:05;;;;;;;13.83;12.13;;;;;;;;;;5022564;28;20232;-74
2022/12/20 05:59:38;;;;;;;16.07;12.73;;;;;;;;;;4997922;23;20244;-82
2022/12/20 06:02:13;;;;;;;12.73;11.47;;;;;;;;;;4985834;28;20238;-84
2022/12/20 06:04:41;;;;;;;12.37;11.03;;;;;;;;;;4978406;28;20223;-84
2022/12/20 06:07:22;;;;;;;12.80;11.50;;;;;;;;;;4956085;28;20627;-84
2022/12/20 06:10:08;;;;;;;15.73;12.40;;;;;;;;;;4962044;28;20214;-82
2022/12/20 06:12:47;;;;;;;11.40;10.30;;;;;;;;;;4961867;28;20218;-86
2022/12/20 06:15:20;;;;;;;12.60;11.30;;;;;;;;;;4959918;28;20261;-83
2022/12/20 06:17:46;;;;;;;12.07;10.93;;;;;;;;;;4964043;28;20214;-84
2022/12/20 06:20:20;;;;;;;10.97;9.97;;;;;;;;;;4960848;28;20272;-81
2022/12/20 06:22:52;;;;;;;12.63;11.33;;;;;;;;;;4971614;28;20280;-83
2022/12/20 06:25:19;;;;;;;11.93;10.83;;;;;;;;;;4957230;28;20214;-84
2022/12/20 06:27:57;;;;;;;10.73;9.67;;;;;;;;;;4961020;28;20245;-85
2022/12/20 06:30:33;;;;;;;12.73;11.40;;;;;;;;;;4945059;28;20222;-83
2022/12/20 06:33:15;;;;;;;13.20;9.97;;;;;;;;;;4953394;28;20228;-84
2022/12/20 06:35:41;;;;;;;11.97;10.73;;;;;;;;;;4970461;28;20231;-81
2022/12/20 06:38:06;;;;;;;11.10;10.00;;;;;;;;;;4968002;28;20229;-82
2022/12/20 06:40:39;;;;;;;11.23;10.13;;;;;;;;;;4960208;28;20225;-81
2022/12/20 06:43:05;;;;;;;11.97;10.77;;;;;;;;;;4974674;28;20217;-82
2022/12/20 06:45:30;;;;;;;12.17;10.83;;;;;;;;;;4945070;28;20233;-81
2022/12/20 06:47:56;;;;;;;13.10;11.87;;;;;;;;;;4953539;28;20217;-82
2022/12/20 06:50:26;;;;;;;11.80;10.67;;;;;;;;;;4980788;28;20221;-80
2022/12/20 06:52:55;;;;;;;12.67;11.33;;;;;;;;;;4954214;28;20226;-83
2022/12/20 06:55:23;;;;;;;11.07;10.03;;;;;;;;;;4959262;28;20232;-82
2022/12/20 06:57:50;;;;;;;12.60;11.40;;;;;;;;;;4956381;28;20214;-82
2022/12/20 07:00:19;;;;;;;12.80;11.57;;;;;;;;;;4991953;28;20223;-82
2022/12/20 07:02:45;;;;;;;13.63;12.23;;;;;;;;;;4992942;28;20276;-82
2022/12/20 07:05:13;;;;;;;14.93;13.47;;;;;;;;;;4976557;28;20217;-81
2022/12/20 07:07:41;;;;;;;14.70;13.40;;;;;;;;;;4965621;28;20222;-83
2022/12/20 07:10:09;;;;;;;12.83;11.53;;;;;;;;;;4981174;28;20228;-83
2022/12/20 07:12:37;;;;;;;13.13;11.80;;;;;;;;;;4992563;28;20237;-83
2022/12/20 07:15:03;;;;;;;12.70;11.47;;;;;;;;;;4993247;28;20284;-82
2022/12/20 07:17:30;;;;;;;13.43;12.07;;;;;;;;;;4994812;28;20228;-81
2022/12/20 07:20:03;;;;;;;13.20;11.83;;;;;;;;;;4985312;28;20260;-81
2022/12/20 07:22:34;;;;;;;13.70;11.13;;;;;;;;;;4995503;28;20288;-85
2022/12/20 07:25:03;;;;;;;12.07;10.97;;;;;;;;;;4970365;28;20713;-84
2022/12/20 07:27:33;;;;;;;13.27;11.93;;;;;;;;;;4970509;28;20234;-83
2022/12/20 07:29:59;;;;;;;11.50;10.40;;;;;;;;;;4991824;28;20241;-82
2022/12/20 07:32:28;;;;;;;12.07;10.87;;;;;;;;;;4972256;28;20225;-81
2022/12/20 07:34:56;;;;;;;11.80;10.60;;;;;;;;;;4968526;28;20667;-84
2022/12/20 07:37:22;;;;;;;11.67;10.47;;;;;;;;;;4973066;28;20247;-82
2022/12/20 07:39:49;;;;;;;10.93;9.93;;;;;;;;;;4988267;28;20225;-83
2022/12/20 07:42:17;;;;;;;14.00;10.70;;;;;;;;;;4988742;28;20267;-84
2022/12/20 07:45:05;;;;;;;11.27;10.27;;;;;;;;;;4971985;28;20229;-81
2022/12/20 07:47:30;;;;;;;54.17;41.67;;;;;;;;;;4974814;28;20254;-80
2022/12/20 07:49:56;;;;;;;19.30;16.23;;;;;;;;;;4992712;28;20273;-82
2022/12/20 07:52:22;;;;;;;11.40;10.30;;;;;;;;;;4987344;28;20605;-84
2022/12/20 07:54:53;;;;;;;11.33;10.20;;;;;;;;;;4969410;28;20363;-81
2022/12/20 07:57:27;;;;;;;10.97;9.67;;;;;;;;;;5008779;28;20283;-84
2022/12/20 07:59:56;;;;;;;10.40;9.50;;;;;;;;;;4982940;28;20232;-81
2022/12/20 08:02:27;;;;;;;11.20;9.53;;;;;;;;;;4977368;28;20252;-83
2022/12/20 08:04:55;;;;;;;10.93;9.93;;;;;;;;;;4973209;28;20346;-83
2022/12/20 08:07:21;;;;;;;10.23;9.17;;;;;;;;;;4993568;28;20697;-83
2022/12/20 08:09:46;;;;;;;11.37;10.37;;;;;;;;;;4988785;28;20282;-82
2022/12/20 08:12:15;;;;;;;10.57;9.60;;;;;;;;;;4989619;28;20228;-82
2022/12/20 08:14:41;;;;;;;9.77;8.87;;;;;;;;;;4993250;28;20225;-82
2022/12/20 08:17:06;;;;;;;10.90;9.33;;;;;;;;;;4983944;28;20687;-82
2022/12/20 08:19:32;;;;;;;11.80;9.83;;;;;;;;;;4985336;28;20218;-83
2022/12/20 08:21:57;;;;;;;9.70;8.90;;;;;;;;;;4993830;28;20270;-81
2022/12/20 08:24:23;;;;;;;10.77;9.67;;;;;;;;;;5013347;28;20252;-85
2022/12/20 08:26:49;;;;;;;9.77;8.83;;;;;;;;;;4993733;28;20644;-85
2022/12/20 08:29:17;;;;;;;9.27;8.43;;;;;;;;;;4997266;28;20248;-82
2022/12/20 08:35:12;;;;;;;9.60;8.73;;;;;;;;;;4989571;28;20249;-84
2022/12/20 08:37:38;;;;;;;10.27;9.23;;;;;;;;;;4998019;28;20233;-85
2022/12/20 08:40:15;;;;;;;10.00;9.10;;;;;;;;;;5000099;28;20624;-80
2022/12/20 08:42:46;;;;;;;9.87;8.97;;;;;;;;;;5004761;28;20236;-85
2022/12/20 08:45:18;;;;;;;13.30;11.23;;;;;;;;;;5005023;28;20225;-84
2022/12/20 08:47:48;;;;;;;10.23;9.30;;;;;;;;;;4978361;28;20229;-82
2022/12/20 08:50:13;;;;;;;10.20;9.30;;;;;;;;;;4974947;28;20393;-83
2022/12/20 08:52:42;;;;;;;10.03;9.03;;;;;;;;;;4985307;28;20222;-84
2022/12/20 08:55:10;;;;;;;10.10;9.10;;;;;;;;;;4998533;28;20222;-82
2022/12/20 08:57:38;;;;;;;10.03;8.93;;;;;;;;;;4994413;28;20221;-84
2022/12/20 09:00:04;;;;;;;9.67;8.67;;;;;;;;;;5005144;28;20209;-81
2022/12/20 09:02:37;;;;;;;10.10;9.10;;;;;;;;;;4978355;28;20308;-82
2022/12/20 09:05:03;;;;;;;9.40;8.50;;;;;;;;;;4978759;28;20848;-84
2022/12/20 09:07:29;;;;;;;8.73;8.00;;;;;;;;;;4994643;28;20229;-81
2022/12/20 09:10:01;;;;;;;9.67;8.80;;;;;;;;;;4989854;28;20222;-83
2022/12/20 09:12:53;;;;;;;8.50;7.73;;;;;;;;;;4982990;28;20225;-81
2022/12/20 09:15:41;;;;;;;8.53;7.73;;;;;;;;;;4987209;28;20237;-84
2022/12/20 09:18:31;;;;;;;8.63;7.83;;;;;;;;;;4995022;28;20222;-84
2022/12/20 09:21:29;;;;;;;9.47;7.77;;;;;;;;;;4994688;28;20199;-85
2022/12/20 09:24:08;;;;;;;8.17;7.37;;;;;;;;;;4992937;28;20226;-85
2022/12/20 09:26:41;;;;;;;9.23;7.87;;;;;;;;;;4998601;28;20197;-82
2022/12/20 09:29:15;;;;;;;8.13;7.33;;;;;;;;;;4990017;28;20217;-83
2022/12/20 09:31:41;;;;;;;7.93;7.03;;;;;;;;;;4987144;28;20344;-83
2022/12/20 09:34:30;;;;;;;7.50;6.77;;;;;;;;;;4983702;28;20237;-83
2022/12/20 09:37:35;;;;;;;7.30;6.60;;;;;;;;;;5002337;28;20237;-80
2022/12/20 09:42:54;;;;;;;7.57;6.43;;;;;;;;;;5014579;28;20236;-76
2022/12/20 09:45:31;;;;;;;7.33;6.63;;;;;;;;;;5001996;28;20285;-74
2022/12/20 09:47:56;;;;;;;7.03;6.13;;;;;;;;;;4993438;28;20686;-74
2022/12/20 09:50:36;;;;;;;6.47;5.83;;;;;;;;;;4985779;28;20290;-75
2022/12/20 09:53:05;;;;;;;9.23;8.47;;;;;;;;;;5003868;28;20216;-76
2022/12/20 09:55:33;;;;;;;8.77;7.83;;;;;;;;;;4992703;28;20237;-75
2022/12/20 09:58:14;;;;;;;8.03;7.33;;;;;;;;;;5010771;28;20231;-74
2022/12/20 10:00:42;;;;;;;9.47;6.80;;;;;;;;;;5025801;28;20224;-74
2022/12/20 10:03:12;;;;;;;9.40;8.50;;;;;;;;;;5009458;28;20242;-78
2022/12/20 10:05:50;;;;;;;7.87;7.07;;;;;;;;;;5003450;28;20232;-75
2022/12/20 10:08:42;;;;;;;8.90;6.87;;;;;;;;;;4992770;28;20258;-75
2022/12/20 10:11:20;;;;;;;7.93;6.97;;;;;;;;;;4987377;28;20330;-75
2022/12/20 10:13:50;;;;;;;8.27;7.20;;;;;;;;;;5005168;28;20216;-75
2022/12/20 10:16:47;;;;;;;7.90;7.20;;;;;;;;;;5018262;28;20235;-75
2022/12/20 10:19:15;;;;;;;7.90;7.10;;;;;;;;;;5009331;28;20223;-74
2022/12/20 10:21:59;;;;;;;8.13;7.40;;;;;;;;;;5000664;28;20233;-74
2022/12/20 10:24:30;;;;;;;10.30;7.10;;;;;;;;;;5005860;28;20732;-74
2022/12/20 10:27:02;;;;;;;7.77;6.97;;;;;;;;;;4995054;28;20220;-74
2022/12/20 10:29:28;;;;;;;7.07;6.47;;;;;;;;;;4977478;28;21439;-75
2022/12/20 10:31:58;;;;;;;7.20;6.50;;;;;;;;;;4992419;28;20228;-75
2022/12/20 10:34:24;;;;;;;7.80;6.63;;;;;;;;;;4991949;28;20220;-75
2022/12/20 10:37:14;;;;;;;6.10;5.60;;;;;;;;;;4990908;28;20232;-75
2022/12/20 10:39:42;;;;;;;7.40;6.70;;;;;;;;;;5008316;28;20275;-75
2022/12/20 10:42:37;;;;;;;9.13;6.10;;;;;;;;;;4992704;28;20310;-75
2022/12/20 10:45:02;;;;;;;6.90;6.20;;;;;;;;;;5010356;28;20224;-76
2022/12/20 10:47:39;;;;;;;6.90;6.30;;;;;;;;;;5018959;28;20224;-75
2022/12/20 10:50:15;;;;;;;7.07;6.37;;;;;;;;;;5004011;28;20228;-76
2022/12/20 10:52:41;;;;;;;6.77;6.07;;;;;;;;;;4983784;28;20228;-75
2022/12/20 10:55:41;;;;;;;6.80;6.10;;;;;;;;;;4987135;28;20256;-75
2022/12/20 10:58:15;;;;;;;6.60;5.80;;;;;;;;;;5008101;28;20255;-75
2022/12/20 11:00:41;;;;;;;6.43;5.83;;;;;;;;;;5009434;28;20220;-76
2022/12/20 11:03:10;;;;;;;7.00;6.30;;;;;;;;;;4983653;28;20231;-75
2022/12/20 11:05:36;;;;;;;6.33;5.67;;;;;;;;;;5001715;28;20248;-75
2022/12/20 11:08:23;;;;;;;6.30;5.57;;;;;;;;;;4993991;28;20231;-76
2022/12/20 11:10:49;;;;;;;6.20;5.60;;;;;;;;;;4994984;28;20244;-76
2022/12/20 11:13:24;;;;;;;6.70;6.00;;;;;;;;;;4984095;28;20228;-76
2022/12/20 11:15:55;;;;;;;6.23;5.60;;;;;;;;;;4996016;28;20223;-77
2022/12/20 11:18:39;;;;;;;5.47;4.97;;;;;;;;;;5002260;28;20233;-76
2022/12/20 11:21:04;;;;;;;4.90;4.50;;;;;;;;;;4993759;28;20297;-76
2022/12/20 11:23:30;;;;;;;5.57;5.07;;;;;;;;;;5018390;28;20709;-76
2022/12/20 11:26:07;;;;;;;6.63;4.63;;;;;;;;;;5007179;28;20259;-75
2022/12/20 11:28:54;;;;;;;5.00;4.47;;;;;;;;;;5029472;28;20342;-75
2022/12/20 11:31:35;;;;;;;6.60;4.73;;;;;;;;;;5029713;28;20252;-76
2022/12/20 11:34:07;;;;;;;5.73;5.10;;;;;;;;;;4983382;28;20236;-75
2022/12/20 11:37:07;;;;;;;4.40;4.00;;;;;;;;;;5003206;28;20296;-77
2022/12/20 11:40:04;;;;;;;5.03;4.53;;;;;;;;;;5007455;28;20225;-75
2022/12/20 11:42:29;;;;;;;4.93;4.07;;;;;;;;;;5014204;28;20217;-76
2022/12/20 11:45:34;;;;;;;4.10;3.80;;;;;;;;;;5024551;28;20311;-75
2022/12/20 11:48:19;;;;;;;4.17;3.77;;;;;;;;;;5008037;28;20601;-75
2022/12/20 11:51:04;;;;;;;4.33;3.93;;;;;;;;;;4989615;28;20732;-74
2022/12/20 11:53:35;;;;;;;4.37;3.97;;;;;;;;;;5019156;28;20393;-75
2022/12/20 11:56:07;;;;;;;4.20;3.80;;;;;;;;;;5011365;28;20327;-75
2022/12/20 11:58:54;;;;;;;5.33;4.03;;;;;;;;;;4996772;28;20687;-75
2022/12/20 12:01:25;;;;;;;4.63;3.90;;;;;;;;;;5011946;28;20267;-75
2022/12/20 12:04:06;;;;;;;3.57;3.33;;;;;;;;;;4995105;28;20367;-76
2022/12/20 12:06:47;;;;;;;4.20;3.80;;;;;;;;;;4988638;28;20247;-76
2022/12/20 12:09:24;;;;;;;4.00;3.70;;;;;;;;;;4981132;28;20307;-76
2022/12/20 12:12:27;;;;;;;3.97;3.57;;;;;;;;;;5003307;28;20287;-77
2022/12/20 12:14:59;;;;;;;4.13;3.27;;;;;;;;;;5013594;28;20220;-76
2022/12/20 12:17:45;;;;;;;4.30;3.90;;;;;;;;;;5019385;28;20229;-77
2022/12/20 12:20:36;;;;;;;3.77;3.47;;;;;;;;;;5019769;28;20625;-76
2022/12/20 12:23:21;;;;;;;3.63;3.33;;;;;;;;;;5023375;28;20224;-76
2022/12/20 12:25:49;;;;;;;4.20;3.80;;;;;;;;;;5020546;28;20209;-76
2022/12/20 12:28:15;;;;;;;5.90;3.50;;;;;;;;;;4993699;28;20285;-76
2022/12/20 12:30:44;;;;;;;2.97;2.67;;;;;;;;;;4986274;28;20217;-75
2022/12/20 12:33:14;;;;;;;4.00;3.60;;;;;;;;;;4988081;28;20666;-76
2022/12/20 12:36:13;;;;;;;4.17;3.47;;;;;;;;;;5011047;28;20220;-76
2022/12/20 12:39:18;;;;;;;3.77;3.30;;;;;;;;;;5010302;28;20302;-77
2022/12/20 12:41:48;;;;;;;4.97;3.67;;;;;;;;;;4995094;28;20721;-79
2022/12/20 12:44:35;;;;;;;3.90;3.60;;;;;;;;;;5021782;28;20229;-78
2022/12/20 12:47:03;;;;;;;5.10;3.43;;;;;;;;;;4990021;28;20228;-77
2022/12/20 12:49:29;;;;;;;3.63;3.33;;;;;;;;;;5003667;28;20225;-77
2022/12/20 12:51:57;;;;;;;3.87;3.47;;;;;;;;;;4989506;28;20229;-74
2022/12/20 12:54:33;;;;;;;4.43;3.40;;;;;;;;;;5001272;28;20232;-74
2022/12/20 12:57:02;;;;;;;3.43;3.13;;;;;;;;;;5010078;28;20228;-74
2022/12/20 12:59:33;;;;;;;4.13;3.03;;;;;;;;;;4975857;28;20228;-74
2022/12/20 13:02:05;;;;;;;5.33;3.50;;;;;;;;;;5009610;28;20247;-74
2022/12/20 13:04:56;;;;;;;4.33;3.37;;;;;;;;;;5019676;28;20753;-74
2022/12/20 13:07:31;;;;;;;4.27;3.30;;;;;;;;;;5025020;28;20240;-74
2022/12/20 13:09:57;;;;;;;4.90;3.23;;;;;;;;;;5004400;28;20228;-74
2022/12/20 13:12:37;;;;;;;4.23;3.03;;;;;;;;;;4986905;28;20223;-74
2022/12/20 13:15:21;;;;;;;3.73;3.33;;;;;;;;;;5028098;28;20219;-74
2022/12/20 13:17:49;;;;;;;3.67;3.10;;;;;;;;;;5008298;28;20232;-74
2022/12/20 13:20:19;;;;;;;3.30;3.00;;;;;;;;;;5024464;28;20711;-74
2022/12/20 13:23:06;;;;;;;3.23;2.97;;;;;;;;;;4993063;28;20232;-74
2022/12/20 13:25:33;;;;;;;4.07;2.97;;;;;;;;;;5018362;28;20862;-73
2022/12/20 13:28:15;;;;;;;2.77;2.53;;;;;;;;;;5023633;28;20225;-74
2022/12/20 13:30:46;;;;;;;3.80;3.50;;;;;;;;;;5036243;28;20259;-74
2022/12/20 13:33:16;;;;;;;3.53;3.23;;;;;;;;;;4988258;28;20267;-75
2022/12/20 13:35:52;;;;;;;4.20;3.13;;;;;;;;;;5018500;28;20228;-75
2022/12/20 13:38:49;;;;;;;2.87;2.47;;;;;;;;;;5010897;28;21140;-75
2022/12/20 13:41:39;;;;;;;3.17;2.90;;;;;;;;;;5024193;28;20690;-75
2022/12/20 13:44:07;;;;;;;2.97;2.67;;;;;;;;;;5002642;28;20228;-76
2022/12/20 13:46:54;;;;;;;4.47;2.83;;;;;;;;;;5020181;28;20220;-74
2022/12/20 13:49:28;;;;;;;5.23;2.90;;;;;;;;;;4993457;28;20237;-77
2022/12/20 13:52:18;;;;;;;3.80;2.67;;;;;;;;;;4973606;28;20224;-77
2022/12/20 13:54:45;;;;;;;3.00;2.60;;;;;;;;;;5044064;28;20224;-77
2022/12/20 13:57:15;;;;;;;4.07;2.63;;;;;;;;;;4995069;28;20220;-76
2022/12/20 13:59:46;;;;;;;3.27;2.97;;;;;;;;;;5004394;28;20240;-76
2022/12/20 14:02:23;;;;;;;3.33;2.73;;;;;;;;;;4975731;28;20745;-76
2022/12/20 14:05:02;;;;;;;2.90;2.70;;;;;;;;;;4993542;28;20215;-76
2022/12/20 14:07:29;;;;;;;3.93;2.97;;;;;;;;;;4976100;28;20285;-76
2022/12/20 14:09:58;;;;;;;3.27;2.97;;;;;;;;;;4990107;28;20216;-77
2022/12/20 14:12:24;;;;;;;3.37;2.97;;;;;;;;;;5007513;28;20283;-76
2022/12/20 14:14:50;;;;;;;4.33;2.90;;;;;;;;;;5001830;28;20219;-75
2022/12/20 14:17:30;;;;;;;3.20;2.60;;;;;;;;;;5016024;28;20222;-75
2022/12/20 14:20:27;;;;;;;3.07;2.87;;;;;;;;;;5003621;28;20227;-76
2022/12/20 14:22:57;;;;;;;3.37;2.80;;;;;;;;;;4987320;28;20239;-75
2022/12/20 14:25:50;;;;;;;4.37;3.13;;;;;;;;;;5017862;28;20308;-75
2022/12/20 14:28:27;;;;;;;2.83;2.63;;;;;;;;;;4979688;28;20223;-74
2022/12/20 14:30:52;;;;;;;2.93;2.67;;;;;;;;;;4991823;28;20216;-75
2022/12/20 14:33:30;;;;;;;5.80;3.00;;;;;;;;;;4985544;28;20224;-75
2022/12/20 14:35:56;;;;;;;3.27;2.90;;;;;;;;;;5002687;28;20235;-75
2022/12/20 14:38:30;;;;;;;2.93;2.73;;;;;;;;;;4966910;28;20737;-74
2022/12/20 14:40:58;;;;;;;3.13;2.83;;;;;;;;;;5019048;28;20731;-75
2022/12/20 14:43:36;;;;;;;3.07;2.83;;;;;;;;;;5008176;28;20223;-75
2022/12/20 14:46:24;;;;;;;3.27;2.93;;;;;;;;;;5014930;28;20233;-76
2022/12/20 14:49:11;;;;;;;2.80;2.60;;;;;;;;;;5008624;28;20320;-76
2022/12/20 14:51:37;;;;;;;3.13;2.67;;;;;;;;;;4991279;28;20229;-77
2022/12/20 14:54:05;;;;;;;3.47;2.80;;;;;;;;;;5002158;28;20686;-76
2022/12/20 14:56:35;;;;;;;3.57;2.90;;;;;;;;;;5021677;28;20858;-76
2022/12/20 14:59:12;;;;;;;2.97;2.60;;;;;;;;;;4969299;28;20295;-75
2022/12/20 15:01:42;;;;;;;3.30;2.90;;;;;;;;;;4998160;28;20228;-76
2022/12/20 15:04:29;;;;;;;3.17;2.87;;;;;;;;;;5005955;28;20664;-76
2022/12/20 15:06:55;;;;;;;2.93;2.50;;;;;;;;;;5022111;28;20284;-76
2022/12/20 15:09:20;;;;;;;3.53;3.23;;;;;;;;;;4990533;28;20212;-76
2022/12/20 15:11:50;;;;;;;4.00;3.70;;;;;;;;;;5006776;28;20232;-76
2022/12/20 15:14:29;;;;;;;3.60;3.30;;;;;;;;;;4983488;28;20247;-76
2022/12/20 15:16:57;;;;;;;3.63;3.33;;;;;;;;;;5021970;28;20224;-76
2022/12/20 15:19:22;;;;;;;4.80;3.20;;;;;;;;;;4999939;28;20227;-75
2022/12/20 15:21:52;;;;;;;4.87;3.27;;;;;;;;;;4991122;28;20224;-76